Flight Track Log - Related Links

Times and Time Zones

All times are in EDT time to prevent confusion due to time zone crossing. See the N891ES flight status page for this flight to view local times or setup timezone preferences in your user account.

Time Position Orientation Groundspeed Altitude Reporting Facility
EDT Latitude Longitude Course Direction KTS MPH feet Rate Location/Type
Wed 08:22:58 AM 36.0961 -83.3861 173° South 165 190 4,100  Level Atlanta Center
Wed 08:23:58 AM 36.0564 -83.3811 174° South 157 181 6,200 2,000 Climbing Atlanta Center
Wed 08:24:58 AM 36.0169 -83.3739 172° South 152 175 8,100 1,850 Climbing Atlanta Center
Wed 08:25:58 AM 35.9708 -83.3639 170° South 147 169 9,900 1,850 Climbing Atlanta Center
Wed 08:26:58 AM 35.9228 -83.3567 173° South 159 183 11,800 1,900 Climbing Atlanta Center
Wed 08:27:00 AM 35.8682 -83.2847 173° South  Level Estimated
Wed 08:27:58 AM 35.8747 -83.3442 168° South 170 196 13,700  Level Atlanta Center
Wed 08:28:58 AM 35.8267 -83.3344 171° South 175 201 15,500 1,800 Climbing Atlanta Center
Wed 08:29:58 AM 35.7808 -83.3247 170° South 180 207 17,300 1,700 Climbing Atlanta Center
Wed 08:30:58 AM 35.7308 -83.3147 171° South 180 207 18,900 1,350 Climbing Atlanta Center
Wed 08:31:58 AM 35.6828 -83.3050 171° South 180 207 20,000 550 Climbing Atlanta Center
Wed 08:32:58 AM 35.6222 -83.2928 171° South 203 234 20,000 200 Level Atlanta Center
Wed 08:33:58 AM 35.5511 -83.2781 170° South 232 267 20,400 800 Climbing Atlanta Center
Wed 08:34:58 AM 35.4906 -83.2658 171° South 243 280 21,600 1,350 Climbing Atlanta Center
Wed 08:35:58 AM 35.4361 -83.2536 170° South 223 257 23,100 1,300 Climbing Atlanta Center
Wed 08:36:58 AM 35.3861 -83.2464 173° South 199 229 24,200 900 Climbing Atlanta Center
Wed 08:37:58 AM 35.3339 -83.2342 169° South 193 222 24,900 400 Climbing Atlanta Center
Wed 08:38:58 AM 35.2753 -83.2222 171° South 205 236 25,000 50 Climbing Atlanta Center
Wed 08:39:58 AM 35.2128 -83.2100 171° South 223 257 25,000  Level Atlanta Center
Wed 08:40:58 AM 35.1561 -83.2006 172° South 223 257 25,000  Level Atlanta Center
Wed 08:41:58 AM 35.0936 -83.1858 169° South 228 262 25,000  Level Atlanta Center
Wed 08:42:58 AM 35.0267 -83.1764 173° South 234 269 25,000  Level Atlanta Center
Wed 08:43:58 AM 34.9619 -83.1592 168° South 234 269 25,000  Level Atlanta Center
Wed 08:44:58 AM 34.8886 -83.1397 168° South 240 276 25,000  Level Atlanta Center
Wed 08:45:58 AM 34.8219 -83.1278 172° South 239 275 25,000  Level Atlanta Center
Wed 08:46:58 AM 34.7592 -83.1133 169° South 245 282 25,000  Level Atlanta Center
Wed 08:47:58 AM 34.6964 -83.1064 175° South 245 282 25,000  Level Atlanta Center
Wed 08:48:58 AM 34.6253 -83.0897 169° South 250 288 25,000  Level Atlanta Center
Wed 08:49:58 AM 34.5586 -83.0778 172° South 250 288 25,000  Level Atlanta Center
Wed 08:50:58 AM 34.4894 -83.0633 170° South 248 285 25,000  Level Atlanta Center
Wed 08:51:58 AM 34.4289 -83.0517 171° South 247 284 25,000  Level Atlanta Center
Wed 08:52:58 AM 34.3536 -83.0372 171° South 247 284 25,000  Level Atlanta Center
Wed 08:53:58 AM 34.2847 -83.0256 172° South 239 275 25,000  Level Atlanta Center
Wed 08:54:58 AM 34.2178 -83.0114 170° South 239 275 25,000  Level Atlanta Center
Wed 08:55:58 AM 34.1508 -82.9997 172° South 239 275 25,000  Level Atlanta Center
Wed 08:56:58 AM 34.0819 -82.9878 172° South 245 282 25,000  Level Atlanta Center
Wed 08:57:58 AM 34.0131 -82.9711 169° South 245 282 25,000  Level Atlanta Center
Wed 08:58:58 AM 33.9461 -82.9619 174° South 245 282 25,000  Level Atlanta Center
Wed 08:59:58 AM 33.8792 -82.9478 170° South 245 282 25,000  Level Atlanta Center
Wed 09:00:58 AM 33.8186 -82.9386 173° South 245 282 25,000  Level Atlanta Center
Wed 09:01:58 AM 33.7494 -82.9244 170° South 250 288 25,000  Level Atlanta Center
Wed 09:02:58 AM 33.6847 -82.9103 170° South 254 292 25,000  Level Atlanta Center
Wed 09:03:58 AM 33.6114 -82.8989 173° South 254 292 25,000  Level Atlanta Center
Wed 09:04:58 AM 33.5425 -82.8847 170° South 253 291 25,000  Level Atlanta Center
Wed 09:05:58 AM 33.4756 -82.8708 170° South 253 291 25,000  Level Atlanta Center
Wed 09:06:58 AM 33.3961 -82.8569 172° South 258 297 25,000  Level Atlanta Center
Wed 09:07:58 AM 33.3292 -82.8456 172° South 258 297 25,000  Level Atlanta Center
Wed 09:08:58 AM 33.2622 -82.8314 170° South 253 291 25,000  Level Atlanta Center
Wed 09:09:58 AM 33.1933 -82.8175 170° South 253 291 25,000  Level Atlanta Center
Wed 09:10:58 AM 33.1222 -82.8061 172° South 258 297 25,000  Level Atlanta Center
Wed 09:11:58 AM 33.0531 -82.7922 170° South 258 297 25,000  Level Atlanta Center
Wed 09:12:58 AM 32.9883 -82.7808 172° South 258 297 25,000  Level Atlanta Center
Wed 09:13:58 AM 32.9192 -82.7644 169° South 258 297 25,000  Level Atlanta Center
Wed 09:14:58 AM 32.8503 -82.7506 170° South 258 297 25,000  Level Atlanta Center
Wed 09:15:58 AM 32.7792 -82.7392 172° South 258 297 25,000  Level Atlanta Center
Wed 09:16:58 AM 32.7081 -82.7231 169° South 258 297 25,000  Level Atlanta Center
Wed 09:17:58 AM 32.6369 -82.7117 172° South 258 297 25,000 -263 Level Atlanta Center
Wed 09:19:38 AM 32.5108 -82.6881 171° South 260 299 24,300 -375 Descending Jacksonville Center
Wed 09:20:38 AM 32.4356 -82.6758 172° South 272 313 24,000 -150 Descending Jacksonville Center
Wed 09:21:38 AM 32.3689 -82.6614 170° South 272 313 24,000  Level Jacksonville Center
Wed 09:22:38 AM 32.2978 -82.6492 172° South 272 313 24,000  Level Jacksonville Center
Wed 09:23:38 AM 32.2269 -82.6347 170° South 272 313 24,000  Level Jacksonville Center
Wed 09:24:38 AM 32.1558 -82.6225 172° South 272 313 24,000  Level Jacksonville Center
Wed 09:25:38 AM 32.0828 -82.6081 170° South 272 313 24,000  Level Jacksonville Center
Wed 09:26:38 AM 32.0139 -82.5961 172° South 266 306 24,000  Level Jacksonville Center
Wed 09:27:38 AM 31.9447 -82.5842 172° South 261 300 24,000  Level Jacksonville Center
Wed 09:28:38 AM 31.8739 -82.5672 169° South 255 293 24,000  Level Jacksonville Center
Wed 09:29:38 AM 31.8028 -82.5578 174° South 255 293 24,000  Level Jacksonville Center
Wed 09:30:38 AM 31.7317 -82.5408 169° South 255 293 24,000  Level Jacksonville Center
Wed 09:31:38 AM 31.6608 -82.5314 174° South 255 293 24,000  Level Jacksonville Center
Wed 09:32:38 AM 31.5939 -82.5169 170° South 255 293 24,000  Level Jacksonville Center
Wed 09:33:38 AM 31.5186 -82.5050 172° South 260 299 24,000  Level Jacksonville Center
Wed 09:34:38 AM 31.4497 -82.4883 168° South 260 299 24,000  Level Jacksonville Center
Wed 09:35:38 AM 31.3725 -82.4742 171° South 260 299 24,000  Level Jacksonville Center
Wed 09:36:38 AM 31.3014 -82.4597 170° South 260 299 24,000  Level Jacksonville Center
Wed 09:37:38 AM 31.2303 -82.4456 170° South 260 299 24,000  Level Jacksonville Center
Wed 09:38:38 AM 31.1614 -82.4386 175° South 260 299 24,000  Level Jacksonville Center
Wed 09:39:38 AM 31.0903 -82.4292 174° South 255 293 24,000  Level Jacksonville Center
Wed 09:40:38 AM 31.0236 -82.4197 173° South 255 293 24,000  Level Jacksonville Center
Wed 09:41:38 AM 30.9525 -82.4131 175° South 255 293 24,000  Level Jacksonville Center
Wed 09:42:38 AM 30.8817 -82.4061 175° South 255 293 24,000  Level Jacksonville Center
Wed 09:43:38 AM 30.8125 -82.3992 175° South 255 293 24,000  Level Jacksonville Center
Wed 09:44:38 AM 30.7417 -82.3922 175° South 255 293 24,000  Level Jacksonville Center
Wed 09:45:38 AM 30.6728 -82.3831 173° South 255 293 24,000  Level Jacksonville Center
Wed 09:46:38 AM 30.6036 -82.3761 175° South 255 293 24,000  Level Jacksonville Center
Wed 09:47:38 AM 30.5347 -82.3692 175° South 255 293 24,000  Level Jacksonville Center
Wed 09:48:38 AM 30.4617 -82.3622 175° South 255 293 24,000  Level Jacksonville Center
Wed 09:49:38 AM 30.3947 -82.3531 173° South 255 293 24,000  Level Jacksonville Center
Wed 09:50:38 AM 30.3239 -82.3464 175° South 255 293 24,000 -350 Level Jacksonville Center
Wed 09:51:38 AM 30.2550 -82.3394 175° South 255 293 23,300 -800 Descending Jacksonville Center
Wed 09:52:38 AM 30.1839 -82.3278 172° South 269 310 22,400 -1,000 Descending Jacksonville Center
Wed 09:53:38 AM 30.1044 -82.3211 176° South 281 323 21,300 -1,050 Descending Jacksonville Center
Wed 09:54:38 AM 30.0272 -82.3119 174° South 281 323 20,300 -1,000 Descending Jacksonville Center
Wed 09:55:38 AM 29.9519 -82.3078 177° South 281 323 19,300 -650 Descending Jacksonville Center
Wed 09:56:38 AM 29.8769 -82.3008 175° South 281 323 19,000 -150 Descending Jacksonville Center
Wed 09:57:38 AM 29.8036 -82.2917 174° South 270 311 19,000  Level Jacksonville Center
Wed 09:58:38 AM 29.7306 -82.2828 174° South 270 311 19,000  Level Jacksonville Center
Wed 09:59:38 AM 29.6594 -82.2736 174° South 270 311 19,000 -650 Level Jacksonville Center
Wed 10:00:38 AM 29.5822 -82.2669 176° South 270 311 17,700 -1,450 Descending Jacksonville Center
Wed 10:01:38 AM 29.5031 -82.2603 176° South 283 326 16,100 -1,600 Descending Jacksonville Center
Wed 10:02:38 AM 29.4236 -82.2511 174° South 291 335 14,500 -1,737 Descending Jacksonville Center
Wed 10:03:32 AM 29.3422 -82.2447 176° South 290 334 12,800 -1,774 Descending Jacksonville Center
Wed 10:04:33 AM 29.2628 -82.2356 174° South 283 326 11,100 -1,455 Descending Jacksonville Center
Wed 10:04:38 AM 29.2647 -82.2356 360° North 291 335 11,200 -111 Climbing Jacksonville Center
Wed 10:05:27 AM 29.1981 -82.2314 177° South 259 298 11,000 -200 Descending Jacksonville Center
Wed 10:05:38 AM 29.1939 -82.2264 134° Southeast 286 329 11,000 -592 Level Jacksonville Center
Wed 10:06:38 AM 29.1350 -82.1794 145° Southeast 249 287 10,300 -804 Descending Jacksonville Center
Wed 10:07:30 AM 29.0931 -82.1083 124° Southeast 282 325 9,500 -900 Descending Jacksonville Center
Wed 10:07:38 AM 29.0908 -82.1061 139° Southeast 254 292 9,400 -882 Descending Jacksonville Center
Wed 10:08:38 AM 29.0403 -82.0375 130° Southeast 271 312 8,500 -850 Descending Jacksonville Center
Wed 10:09:38 AM 28.9939 -81.9692 128° Southeast 276 318 7,700 -750 Descending Jacksonville Center
Wed 10:10:38 AM 28.9411 -81.8961 130° Southeast 276 318 7,000 -350 Descending Jacksonville Center
Wed 10:11:38 AM 28.8947 -81.8278 128° Southeast 281 323 7,000  Level Jacksonville Center
Wed 10:12:38 AM 28.8525 -81.7689 129° Southeast 269 310 7,000 -300 Level Jacksonville Center
Wed 10:13:38 AM 28.7936 -81.7200 144° Southeast 258 297 6,400 -500 Descending Jacksonville Center
Wed 10:14:38 AM 28.7328 -81.6897 156° South 253 291 6,000 -450 Descending Jacksonville Center
Wed 10:15:38 AM 28.6803 -81.6619 155° Southeast 232 267 5,500 -850 Descending Jacksonville Center
Wed 10:16:38 AM 28.6258 -81.6319 154° Southeast 227 261 4,300 -750 Descending Jacksonville Center
Wed 10:17:38 AM 28.5775 -81.6067 155° Southeast 207 238 4,000 -450 Descending Jacksonville Center
Wed 10:18:38 AM 28.5397 -81.5739 143° Southeast 189 217 3,400 -800 Descending Jacksonville Center
Wed 10:19:38 AM 28.5286 -81.5197 103° East 166 191 2,400 -850 Descending Jacksonville Center
Wed 10:20:38 AM 28.5178 -81.4681 103° East 159 183 1,700 -450 Descending Jacksonville Center
Wed 10:21:38 AM 28.5214 -81.4300 84° East 146 168 1,500 -100 Descending Jacksonville Center
Wed 10:22:38 AM 28.5147 -81.3878 100° East 141 162 1,500  Level Jacksonville Center
Wed 10:25:00 AM 28.5455 -81.3329 90° East  Level Estimated
Wed 10:32:00 AM 28.5455 -81.3329 90° East  Level Estimated
Wed 10:33:00 AM 28.5455 -81.3329 90° East  Level Estimated
Wed 10:34:00 AM 28.5455 -81.3329 90° East  Level Estimated
Wed 10:35:00 AM 28.5455 -81.3329 90° East  Level Estimated

Login

Don't have an account? Register now (free) for customized features, flight alerts, and more!